createdAt,value
2018-03-24T00:00:48.042Z,2.83
2018-03-24T00:03:14.379Z,2.80
2018-03-24T00:05:40.714Z,3.13
2018-03-24T00:08:07.065Z,2.60
2018-03-24T00:10:33.408Z,2.80
2018-03-24T00:12:59.790Z,3.07
2018-03-24T00:15:26.113Z,2.63
2018-03-24T00:17:52.486Z,3.03
2018-03-24T00:20:18.906Z,2.60
2018-03-24T00:22:45.286Z,2.93
2018-03-24T00:25:11.675Z,2.70
2018-03-24T00:27:38.090Z,2.70
2018-03-24T00:30:04.470Z,2.93
2018-03-24T00:32:30.809Z,2.83
2018-03-24T00:34:57.239Z,2.90
2018-03-24T00:37:23.657Z,2.90
2018-03-24T00:39:49.999Z,2.93
2018-03-24T00:42:16.421Z,2.50
2018-03-24T00:44:42.978Z,2.57
2018-03-24T00:47:09.711Z,2.83
2018-03-24T00:49:36.106Z,2.70
2018-03-24T00:52:02.497Z,2.60
2018-03-24T00:54:28.862Z,2.80
2018-03-24T00:56:55.234Z,2.80
2018-03-24T00:59:21.573Z,2.90
2018-03-24T01:01:47.968Z,2.93
2018-03-24T01:04:14.305Z,2.60
2018-03-24T01:06:40.735Z,2.80
2018-03-24T01:09:07.082Z,2.63
2018-03-24T01:11:33.695Z,2.20
2018-03-24T01:14:00.030Z,2.47
2018-03-24T01:16:26.382Z,2.70
2018-03-24T01:18:52.764Z,2.93
2018-03-24T01:21:19.095Z,2.80
2018-03-24T01:23:45.437Z,2.80
2018-03-24T01:26:11.794Z,2.73
2018-03-24T01:28:38.152Z,2.90
2018-03-24T01:31:04.698Z,2.87
2018-03-24T01:33:31.061Z,2.50
2018-03-24T01:35:57.418Z,2.60
2018-03-24T01:38:23.754Z,2.70
2018-03-24T01:40:50.077Z,2.80
2018-03-24T01:43:16.407Z,2.20
2018-03-24T01:45:42.845Z,2.67
2018-03-24T01:48:09.169Z,2.60
2018-03-24T01:50:35.558Z,2.80
2018-03-24T01:53:01.945Z,2.60
2018-03-24T01:55:28.329Z,2.70
2018-03-24T01:57:54.671Z,2.77
2018-03-24T02:00:21.070Z,2.37
2018-03-24T02:02:47.553Z,2.70
2018-03-24T02:05:13.995Z,2.70
2018-03-24T02:07:40.347Z,2.60
2018-03-24T02:10:06.716Z,2.57
2018-03-24T02:12:33.148Z,2.50
2018-03-24T02:14:59.707Z,2.70
2018-03-24T02:17:26.245Z,2.63
2018-03-24T02:19:52.618Z,2.70
2018-03-24T02:22:19.014Z,2.40
2018-03-24T02:24:45.416Z,2.67
2018-03-24T02:27:11.891Z,2.50
2018-03-24T02:29:38.287Z,2.47
2018-03-24T02:32:04.669Z,2.57
2018-03-24T02:34:31.050Z,2.70
2018-03-24T02:36:57.414Z,2.60
2018-03-24T02:39:23.851Z,2.50
2018-03-24T02:41:50.298Z,2.60
2018-03-24T02:44:16.705Z,2.37
2018-03-24T02:46:43.060Z,2.70
2018-03-24T02:49:09.405Z,2.70
2018-03-24T02:51:35.802Z,2.53
2018-03-24T02:54:02.168Z,2.53
2018-03-24T02:56:28.527Z,2.40
2018-03-24T02:58:54.944Z,2.47
2018-03-24T03:01:21.382Z,2.37
2018-03-24T03:03:47.681Z,2.40
2018-03-24T03:06:14.048Z,2.37
2018-03-24T03:08:40.429Z,2.40
2018-03-24T03:11:06.762Z,2.50
2018-03-24T03:13:33.150Z,2.33
2018-03-24T03:15:59.486Z,2.20
2018-03-24T03:18:25.870Z,2.67
2018-03-24T03:20:52.206Z,2.50
2018-03-24T03:23:18.565Z,2.50
2018-03-24T03:25:44.965Z,2.90
2018-03-24T03:28:11.307Z,2.80
2018-03-24T03:30:37.726Z,2.50
2018-03-24T03:33:04.177Z,2.67
2018-03-24T03:35:30.486Z,2.80
2018-03-24T03:37:56.854Z,2.60
2018-03-24T03:40:23.199Z,2.60
2018-03-24T03:42:49.531Z,2.60
2018-03-24T03:45:15.950Z,2.40
2018-03-24T03:47:42.278Z,2.50
2018-03-24T03:50:08.607Z,2.50
2018-03-24T03:52:34.957Z,2.60
2018-03-24T03:55:01.354Z,2.40
2018-03-24T03:57:27.678Z,2.50
2018-03-24T03:59:54.091Z,2.63
2018-03-24T04:02:20.489Z,2.50
2018-03-24T04:04:46.845Z,2.60
2018-03-24T04:07:13.198Z,2.60
2018-03-24T04:09:39.582Z,2.40
2018-03-24T04:12:05.916Z,2.30
2018-03-24T04:14:32.256Z,2.80
2018-03-24T04:16:58.640Z,2.20
2018-03-24T04:19:24.985Z,2.70
2018-03-24T04:21:51.378Z,2.30
2018-03-24T04:24:17.708Z,2.43
2018-03-24T04:26:44.068Z,2.40
2018-03-24T04:29:10.418Z,2.60
2018-03-24T04:31:36.755Z,2.60
2018-03-24T04:34:03.090Z,2.67
2018-03-24T04:36:29.427Z,2.10
2018-03-24T04:38:55.752Z,2.60
2018-03-24T04:41:22.128Z,2.50
2018-03-24T04:43:48.470Z,2.33
2018-03-24T04:46:14.859Z,2.60
2018-03-24T04:48:41.198Z,2.70
2018-03-24T04:51:07.581Z,2.63
2018-03-24T04:53:33.911Z,2.57
2018-03-24T04:56:00.249Z,2.53
2018-03-24T04:58:26.582Z,2.67
2018-03-24T05:00:52.913Z,2.70
2018-03-24T05:03:19.261Z,2.97
2018-03-24T05:05:45.621Z,2.43
2018-03-24T05:08:12.031Z,2.83
2018-03-24T05:10:38.410Z,2.37
2018-03-24T05:13:04.774Z,2.60
2018-03-24T05:15:31.129Z,2.57
2018-03-24T05:17:57.485Z,2.57
2018-03-24T05:20:23.821Z,2.70
2018-03-24T05:22:50.146Z,2.60
2018-03-24T05:25:16.489Z,3.40
2018-03-24T05:27:42.822Z,2.70
2018-03-24T05:30:09.154Z,2.80
2018-03-24T05:32:35.530Z,2.63
2018-03-24T05:35:01.930Z,2.60
2018-03-24T05:37:28.262Z,2.40
2018-03-24T05:39:54.606Z,2.57
2018-03-24T05:42:20.935Z,2.50
2018-03-24T05:44:47.322Z,2.80
2018-03-24T05:47:13.662Z,2.70
2018-03-24T05:49:40.007Z,2.47
2018-03-24T05:52:06.331Z,2.70
2018-03-24T05:54:32.701Z,2.70
2018-03-24T05:56:59.072Z,2.70
2018-03-24T05:59:25.402Z,2.50
2018-03-24T06:01:51.726Z,2.70
2018-03-24T06:04:18.069Z,2.63
2018-03-24T06:06:44.414Z,2.50
2018-03-24T06:09:10.787Z,2.60
2018-03-24T06:11:37.165Z,2.43
2018-03-24T06:14:03.495Z,2.37
2018-03-24T06:16:29.862Z,2.47
2018-03-24T06:18:56.199Z,2.53
2018-03-24T06:21:22.538Z,2.70
2018-03-24T06:23:48.901Z,2.70
2018-03-24T06:26:15.250Z,2.53
2018-03-24T06:28:41.614Z,2.73
2018-03-24T06:31:07.999Z,2.70
2018-03-24T06:33:34.342Z,2.60
2018-03-24T06:36:00.686Z,2.70
2018-03-24T06:38:27.018Z,2.40
2018-03-24T06:40:53.362Z,2.80
2018-03-24T06:43:19.698Z,2.80
2018-03-24T06:45:46.044Z,2.53
2018-03-24T06:48:12.397Z,2.80
2018-03-24T06:50:38.727Z,2.73
2018-03-24T06:53:05.089Z,2.63
2018-03-24T06:55:31.466Z,2.70
2018-03-24T06:57:57.843Z,2.40
2018-03-24T07:00:24.181Z,2.70
2018-03-24T07:02:50.558Z,2.53
2018-03-24T07:05:16.987Z,2.90
2018-03-24T07:07:43.380Z,2.67
2018-03-24T07:10:09.771Z,2.97
2018-03-24T07:12:36.098Z,3.03
2018-03-24T07:15:02.473Z,2.80
2018-03-24T07:17:28.815Z,2.80
2018-03-24T07:19:55.196Z,2.77
2018-03-24T07:22:21.574Z,2.80
2018-03-24T07:24:47.918Z,3.00
2018-03-24T07:27:14.279Z,2.80
2018-03-24T07:29:40.670Z,2.80
2018-03-24T07:32:07.045Z,2.80
2018-03-24T07:34:33.384Z,2.73
2018-03-24T07:36:59.765Z,2.57
2018-03-24T07:39:26.118Z,2.80
2018-03-24T07:41:52.445Z,2.90
2018-03-24T07:44:18.825Z,2.90
2018-03-24T07:46:45.199Z,3.03
2018-03-24T07:49:11.558Z,3.07
2018-03-24T07:51:37.943Z,2.90
2018-03-24T07:54:04.310Z,2.90
2018-03-24T07:56:30.629Z,2.53
2018-03-24T07:58:57.009Z,2.93
2018-03-24T08:01:23.454Z,2.60
2018-03-24T08:03:49.817Z,3.33
2018-03-24T08:06:16.222Z,2.80
2018-03-24T08:08:42.582Z,2.70
2018-03-24T08:11:08.935Z,2.70
2018-03-24T08:13:35.266Z,2.70
2018-03-24T08:16:01.641Z,2.80
2018-03-24T08:18:27.973Z,2.60
2018-03-24T08:20:54.338Z,2.80
2018-03-24T08:23:20.689Z,2.93
2018-03-24T08:25:47.062Z,2.80
2018-03-24T08:28:13.454Z,3.60
2018-03-24T08:30:39.826Z,3.00
2018-03-24T08:33:06.221Z,3.70
2018-03-24T08:35:32.592Z,2.80
2018-03-24T08:37:58.966Z,2.90
2018-03-24T08:40:25.342Z,2.87
2018-03-24T08:42:51.685Z,2.90
2018-03-24T08:45:18.088Z,2.97
2018-03-24T08:47:44.434Z,2.80
2018-03-24T08:50:10.799Z,2.87
2018-03-24T08:52:37.188Z,2.93
2018-03-24T08:55:03.540Z,2.80
2018-03-24T08:57:29.894Z,2.93
2018-03-24T08:59:56.268Z,2.67
2018-03-24T09:02:22.638Z,3.87
2018-03-24T09:04:49.023Z,3.00
2018-03-24T09:07:15.394Z,2.80
2018-03-24T09:09:41.789Z,3.03
2018-03-24T09:12:08.127Z,3.33
2018-03-24T09:14:34.504Z,3.37
2018-03-24T09:17:00.833Z,2.90
2018-03-24T09:19:27.236Z,3.23
2018-03-24T09:21:53.643Z,3.30
2018-03-24T09:24:20.053Z,2.97
2018-03-24T09:26:46.423Z,3.20
2018-03-24T09:29:12.750Z,3.20
2018-03-24T09:31:39.125Z,3.10
2018-03-24T09:34:05.468Z,3.20
2018-03-24T09:36:31.805Z,3.60
2018-03-24T09:38:58.166Z,3.33
2018-03-24T09:41:24.524Z,3.20
2018-03-24T09:43:50.850Z,3.80
2018-03-24T09:46:17.226Z,3.57
2018-03-24T09:48:43.612Z,3.43
2018-03-24T09:51:09.945Z,3.60
2018-03-24T09:53:36.323Z,3.53
2018-03-24T09:56:02.678Z,3.47
2018-03-24T09:58:29.055Z,4.30
2018-03-24T10:00:55.426Z,3.37
2018-03-24T10:03:21.816Z,5.87
2018-03-24T10:05:48.141Z,3.50
2018-03-24T10:08:14.491Z,3.63
2018-03-24T10:10:40.830Z,3.50
2018-03-24T10:13:07.215Z,6.40
2018-03-24T10:15:33.652Z,4.03
2018-03-24T10:18:00.003Z,3.97
2018-03-24T10:20:26.362Z,3.50
2018-03-24T10:22:52.733Z,3.77
2018-03-24T10:25:19.068Z,3.50
2018-03-24T10:27:45.434Z,4.43
2018-03-24T10:30:11.780Z,4.07
2018-03-24T10:32:38.182Z,3.70
2018-03-24T10:35:04.514Z,3.93
2018-03-24T10:37:30.888Z,4.27
2018-03-24T10:39:57.239Z,5.10
2018-03-24T10:42:23.613Z,3.63
2018-03-24T10:44:49.994Z,3.47
2018-03-24T10:47:16.368Z,7.87
2018-03-24T10:49:42.800Z,3.70
2018-03-24T10:52:09.166Z,4.50
2018-03-24T10:54:35.543Z,5.73
2018-03-24T10:57:01.925Z,5.70
2018-03-24T10:59:28.297Z,6.73
2018-03-24T11:01:54.674Z,8.83
2018-03-24T11:04:21.112Z,5.53
2018-03-24T11:06:47.495Z,4.00
2018-03-24T11:11:53.090Z,5.27
2018-03-24T11:14:19.450Z,5.47
2018-03-24T11:16:45.839Z,4.00
2018-03-24T11:19:12.231Z,5.50
2018-03-24T11:21:38.649Z,5.27
2018-03-24T11:24:05.001Z,4.23
2018-03-24T11:26:31.397Z,4.90
2018-03-24T11:28:57.713Z,3.73
2018-03-24T11:31:24.130Z,4.60
2018-03-24T11:33:50.510Z,4.20
2018-03-24T11:36:16.885Z,5.97
2018-03-24T11:38:43.266Z,5.60
2018-03-24T11:41:09.597Z,6.97
2018-03-24T11:43:36.006Z,4.33
2018-03-24T11:46:02.373Z,5.83
2018-03-24T11:48:28.730Z,6.23
2018-03-24T11:50:55.131Z,4.30
2018-03-24T11:53:21.461Z,4.83
2018-03-24T11:55:47.874Z,4.63
2018-03-24T11:58:14.307Z,4.03
2018-03-24T12:00:40.637Z,4.23
2018-03-24T12:03:06.978Z,4.27
2018-03-24T12:05:33.382Z,4.50
2018-03-24T12:07:59.724Z,4.13
2018-03-24T12:10:26.097Z,4.17
2018-03-24T12:12:52.433Z,4.17
2018-03-24T12:15:18.873Z,4.43
2018-03-24T12:17:45.235Z,4.90
2018-03-24T12:20:11.638Z,4.53
2018-03-24T12:22:38.004Z,5.70
2018-03-24T12:25:04.366Z,4.47
2018-03-24T12:27:30.763Z,4.60
2018-03-24T12:29:57.123Z,5.27
2018-03-24T12:32:23.545Z,4.77
2018-03-24T12:34:49.889Z,4.10
2018-03-24T12:37:16.214Z,4.60
2018-03-24T12:39:42.610Z,4.33
2018-03-24T12:42:09.003Z,4.63
2018-03-24T12:44:35.318Z,4.93
2018-03-24T12:47:01.723Z,4.90
2018-03-24T12:49:28.081Z,4.67
2018-03-24T12:51:54.462Z,5.13
2018-03-24T12:54:20.801Z,5.67
2018-03-24T12:56:47.128Z,4.67
2018-03-24T12:59:13.509Z,4.83
2018-03-24T13:01:39.881Z,4.87
2018-03-24T13:04:06.239Z,4.90
2018-03-24T13:06:32.565Z,4.23
2018-03-24T13:08:58.957Z,5.30
2018-03-24T13:11:25.298Z,4.43
2018-03-24T13:13:51.662Z,4.60
2018-03-24T13:16:18.029Z,4.83
2018-03-24T13:18:44.436Z,5.30
2018-03-24T13:21:10.809Z,4.80
2018-03-24T13:23:37.249Z,4.73
